LIML/LIN METAR and TAF weather

Enter ICAO airport designator
Station Type Date Time Source
LIML METAR 2022/11/30 22:20 UTC NOAA

LIML 302220Z 19001KT CAVOK 03/03 Q1019 NOSIG


Station Type Date Time Source
LIML Decoded METAR 2022/11/30 22:20 UTC NOAA

Milano / Linate, Italy (LIML) 45-26N 009-17E 103M
Nov 30, 2022 - 05:20 PM EST / 2022.11.30 2220 UTC
Wind: from the S (190 degrees) at 1 MPH (1 KT):0
Visibility: greater than 7 mile(s):0
Temperature: 37 F (3 C)
Dew Point: 37 F (3 C)
Relative Humidity: 100%
Pressure (altimeter): 30.09 in. Hg (1019 hPa)
ob: LIML 302220Z 19001KT CAVOK 03/03 Q1019 NOSIG
cycle: 22

Station Type Date Time Source
LIML TAF 2022/11/30 18:21 UTC NOAA

TAF LIML 301700Z 3018/0118 VRB05KT 7000 FEW050
BECMG 3022/3024 2000 BCFG
BECMG 0101/0103 0500 FG BKN003
TEMPO 0102/0107 FZFG
BECMG 0109/0111 3000 BR SCT050
BECMG 0112/0114 7000

Example: see airport list